createdAt,value
2018-11-25T00:00:47.994Z,18.5
2018-11-25T00:01:50.156Z,18.5
2018-11-25T00:02:52.007Z,18.6
2018-11-25T00:03:54.436Z,18.6
2018-11-25T00:04:56.595Z,18.6
2018-11-25T00:05:58.448Z,18.5
2018-11-25T00:07:00.604Z,18.5
2018-11-25T00:08:03.029Z,18.7
2018-11-25T00:09:05.161Z,18.6
2018-11-25T00:10:07.602Z,18.7
2018-11-25T00:11:09.758Z,18.6
2018-11-25T00:12:11.914Z,18.6
2018-11-25T00:13:13.810Z,18.6
2018-11-25T00:14:16.785Z,18.8
2018-11-25T00:15:18.971Z,18.7
2018-11-25T00:16:20.858Z,18.7
2018-11-25T00:17:23.288Z,18.7
2018-11-25T00:18:25.449Z,18.7
2018-11-25T00:19:27.598Z,18.7
2018-11-25T00:20:29.757Z,18.7
2018-11-25T00:21:32.186Z,18.8
2018-11-25T00:22:33.808Z,18.8
2018-11-25T00:23:36.243Z,18.8
2018-11-25T00:24:38.396Z,18.7
2018-11-25T00:25:40.822Z,18.8
2018-11-25T00:26:43.248Z,18.8
2018-11-25T00:27:45.378Z,18.8
2018-11-25T00:28:47.810Z,18.8
2018-11-25T00:29:50.240Z,18.8
2018-11-25T00:30:52.398Z,18.8
2018-11-25T00:31:54.556Z,18.8
2018-11-25T00:32:56.699Z,18.8
2018-11-25T00:33:58.878Z,18.8
2018-11-25T00:35:01.041Z,18.9
2018-11-25T00:36:03.191Z,18.7
2018-11-25T00:37:05.618Z,18.8
2018-11-25T00:38:07.499Z,18.9
2018-11-25T00:39:09.390Z,18.8
2018-11-25T00:40:11.547Z,18.9
2018-11-25T00:41:13.704Z,18.8
2018-11-25T00:42:16.132Z,18.8
2018-11-25T00:43:18.296Z,18.9
2018-11-25T00:44:20.447Z,18.8
2018-11-25T00:45:22.868Z,18.7
2018-11-25T00:46:25.024Z,18.9
2018-11-25T00:47:27.189Z,18.9
2018-11-25T00:48:29.611Z,18.8
2018-11-25T00:49:32.035Z,18.8
2018-11-25T00:50:33.922Z,18.9
2018-11-25T00:51:36.338Z,19
2018-11-25T00:52:38.508Z,18.8
2018-11-25T00:53:40.941Z,18.9
2018-11-25T00:54:43.385Z,18.9
2018-11-25T00:55:45.000Z,18.8
2018-11-25T00:56:47.139Z,18.9
2018-11-25T00:57:49.579Z,18.8
2018-11-25T00:58:52.009Z,18.8
2018-11-25T00:59:53.895Z,18.9
2018-11-25T01:00:56.308Z,19
2018-11-25T01:01:58.187Z,18.9
2018-11-25T01:02:59.774Z,18.9
2018-11-25T01:04:02.209Z,18.8
2018-11-25T01:05:04.611Z,18.9
2018-11-25T01:06:07.049Z,18.9
2018-11-25T01:07:09.478Z,18.9
2018-11-25T01:08:11.609Z,18.8
2018-11-25T01:09:13.745Z,19
2018-11-25T01:10:15.901Z,18.9
2018-11-25T01:11:18.321Z,19
2018-11-25T01:12:19.648Z,18.9
2018-11-25T01:13:21.823Z,19
2018-11-25T01:14:23.985Z,19
2018-11-25T01:15:26.125Z,18.9
2018-11-25T01:16:28.279Z,19
2018-11-25T01:17:30.418Z,19
2018-11-25T01:18:32.030Z,18.9
2018-11-25T01:19:34.156Z,19.1
2018-11-25T01:20:36.318Z,18.9
2018-11-25T01:21:38.469Z,19.1
2018-11-25T01:22:40.631Z,18.9
2018-11-25T01:23:42.779Z,19
2018-11-25T01:24:44.940Z,19.1
2018-11-25T01:25:47.112Z,19
2018-11-25T01:26:49.527Z,19
2018-11-25T01:27:51.678Z,19.1
2018-11-25T01:28:54.119Z,19
2018-11-25T01:29:56.319Z,18.9
2018-11-25T01:30:58.480Z,18.9
2018-11-25T01:32:00.906Z,19
2018-11-25T01:33:03.329Z,19
2018-11-25T01:34:05.759Z,19
2018-11-25T01:35:08.184Z,19.1
2018-11-25T01:36:09.787Z,18.9
2018-11-25T01:37:11.937Z,19
2018-11-25T01:38:14.097Z,19
2018-11-25T01:39:16.255Z,19
2018-11-25T01:40:18.674Z,18.9
2018-11-25T01:41:21.101Z,18.9
2018-11-25T01:42:23.531Z,19
2018-11-25T01:43:25.397Z,19
2018-11-25T01:44:27.813Z,19
2018-11-25T01:45:30.249Z,19
2018-11-25T01:46:32.389Z,19.1
2018-11-25T01:47:34.553Z,19
2018-11-25T01:48:36.970Z,19
2018-11-25T01:49:39.133Z,19
2018-11-25T01:50:41.569Z,19
2018-11-25T01:51:43.731Z,19
2018-11-25T01:52:45.872Z,19
2018-11-25T01:53:48.408Z,19.1
2018-11-25T01:54:50.319Z,19
2018-11-25T01:55:52.204Z,18.9
2018-11-25T01:56:54.077Z,19.1
2018-11-25T01:57:56.249Z,19
2018-11-25T01:58:58.670Z,19.1
2018-11-25T02:00:01.897Z,19.2
2018-11-25T02:01:04.061Z,19
2018-11-25T02:02:06.215Z,19.1
2018-11-25T02:03:07.829Z,19
2018-11-25T02:04:09.730Z,18.9
2018-11-25T02:05:11.619Z,19.1
2018-11-25T02:06:13.739Z,19.2
2018-11-25T02:07:15.627Z,19.1
2018-11-25T02:08:17.822Z,19
2018-11-25T02:09:20.248Z,19.1
2018-11-25T02:10:22.093Z,18.9
2018-11-25T02:11:24.529Z,19
2018-11-25T02:12:26.996Z,19.1
2018-11-25T02:13:29.405Z,19
2018-11-25T02:14:31.560Z,19.1
2018-11-25T02:15:33.983Z,19
2018-11-25T02:16:36.187Z,19.1
2018-11-25T02:17:38.611Z,19
2018-11-25T02:18:40.499Z,19
2018-11-25T02:19:42.667Z,19
2018-11-25T02:20:45.097Z,19
2018-11-25T02:21:47.250Z,19.1
2018-11-25T02:22:48.851Z,19.1
2018-11-25T02:23:51.031Z,19.1
2018-11-25T02:24:53.449Z,19.2
2018-11-25T02:25:55.870Z,19
2018-11-25T02:26:57.810Z,19
2018-11-25T02:28:00.223Z,19.1
2018-11-25T02:29:02.107Z,19
2018-11-25T02:30:04.260Z,19
2018-11-25T02:31:06.421Z,19.1
2018-11-25T02:32:08.849Z,19.1
2018-11-25T02:33:10.989Z,19.2
2018-11-25T02:34:12.868Z,19.1
2018-11-25T02:35:14.477Z,19.1
2018-11-25T02:36:16.622Z,19.1
2018-11-25T02:37:18.768Z,19.1
2018-11-25T02:38:21.199Z,19
2018-11-25T02:39:23.366Z,19.1
2018-11-25T02:40:24.976Z,19
2018-11-25T02:41:27.408Z,19.1
2018-11-25T02:42:29.552Z,19.1
2018-11-25T02:43:31.424Z,19.1
2018-11-25T02:44:33.850Z,19.1
2018-11-25T02:45:35.717Z,19.1
2018-11-25T02:46:37.870Z,19
2018-11-25T02:47:40.031Z,19.2
2018-11-25T02:48:41.648Z,19
2018-11-25T02:49:44.080Z,19.1
2018-11-25T02:50:46.294Z,19.1
2018-11-25T02:51:47.903Z,19
2018-11-25T02:52:49.804Z,19.2
2018-11-25T02:53:51.961Z,19.1
2018-11-25T02:54:53.841Z,19.1
2018-11-25T02:55:56.259Z,19
2018-11-25T02:56:57.853Z,19
2018-11-25T02:58:01.410Z,19.1
2018-11-25T02:59:03.570Z,19.2
2018-11-25T03:00:05.999Z,19.1
2018-11-25T03:01:07.896Z,19.1
2018-11-25T03:02:09.758Z,19.1
2018-11-25T03:03:12.189Z,19
2018-11-25T03:04:14.620Z,19.2
2018-11-25T03:05:16.779Z,19.1
2018-11-25T03:06:18.659Z,19.1
2018-11-25T03:07:21.085Z,19.1
2018-11-25T03:08:23.242Z,19.2
2018-11-25T03:09:24.860Z,19
2018-11-25T03:10:27.283Z,19.1
2018-11-25T03:11:29.442Z,19.2
2018-11-25T03:12:31.585Z,19.1
2018-11-25T03:13:34.010Z,19.3
2018-11-25T03:14:36.442Z,19.2
2018-11-25T03:15:38.860Z,19.1
2018-11-25T03:16:41.025Z,19.2
2018-11-25T03:17:42.904Z,19
2018-11-25T03:18:44.780Z,19.2
2018-11-25T03:19:47.206Z,19
2018-11-25T03:20:49.108Z,19.1
2018-11-25T03:21:51.261Z,19.1
2018-11-25T03:22:53.680Z,19.1
2018-11-25T03:23:55.299Z,19.2
2018-11-25T03:24:57.438Z,19.1
2018-11-25T03:25:59.586Z,19.1
2018-11-25T03:27:01.740Z,19.2
2018-11-25T03:28:03.607Z,19.2
2018-11-25T03:29:05.776Z,19.3
2018-11-25T03:30:08.200Z,19.2
2018-11-25T03:31:10.376Z,19.2
2018-11-25T03:32:12.800Z,19.3
2018-11-25T03:33:14.959Z,19.3
2018-11-25T03:34:17.398Z,19.1
2018-11-25T03:35:19.287Z,19.1
2018-11-25T03:36:21.773Z,19.2
2018-11-25T03:37:24.186Z,19.2
2018-11-25T03:38:26.058Z,19.2
2018-11-25T03:39:28.490Z,19.1
2018-11-25T03:40:30.930Z,19
2018-11-25T03:41:33.098Z,19.2
2018-11-25T03:42:35.243Z,19.2
2018-11-25T03:43:37.665Z,19.1
2018-11-25T03:44:40.082Z,19.1
2018-11-25T03:45:41.956Z,19.2
2018-11-25T03:46:44.096Z,19.1
2018-11-25T03:47:46.515Z,19.1
2018-11-25T03:48:48.391Z,19.1
2018-11-25T03:49:50.536Z,19.1
2018-11-25T03:50:52.677Z,19.1
2018-11-25T03:51:54.556Z,19.1
2018-11-25T03:52:56.980Z,19.1
2018-11-25T03:53:59.406Z,19.2
2018-11-25T03:55:01.576Z,19.2
2018-11-25T03:56:04.021Z,19.2
2018-11-25T03:57:05.895Z,19.1
2018-11-25T03:58:08.351Z,19.2
2018-11-25T03:59:10.222Z,19.3
2018-11-25T04:00:12.649Z,19.2
2018-11-25T04:01:14.805Z,19.2
2018-11-25T04:02:17.225Z,19.1
2018-11-25T04:03:19.681Z,19.2
2018-11-25T04:04:21.836Z,19.2
2018-11-25T04:05:24.331Z,19.1
2018-11-25T04:06:26.500Z,19.2
2018-11-25T04:07:28.940Z,19.1
2018-11-25T04:08:31.092Z,19.1
2018-11-25T04:09:32.963Z,19
2018-11-25T04:10:35.439Z,19.1
2018-11-25T04:11:37.595Z,18.9
2018-11-25T04:12:39.195Z,19.1
2018-11-25T04:13:41.629Z,19
2018-11-25T04:14:43.524Z,19.1
2018-11-25T04:15:45.678Z,19
2018-11-25T04:16:47.839Z,18.9
2018-11-25T04:17:49.722Z,19
2018-11-25T04:18:52.166Z,19
2018-11-25T04:19:53.750Z,18.9
2018-11-25T04:20:56.186Z,18.9
2018-11-25T04:21:58.607Z,19
2018-11-25T04:22:59.934Z,19
2018-11-25T04:24:02.358Z,18.9
2018-11-25T04:25:04.780Z,18.8
2018-11-25T04:26:06.938Z,18.9
2018-11-25T04:27:09.089Z,18.8
2018-11-25T04:28:10.946Z,19
2018-11-25T04:29:13.106Z,18.8
2018-11-25T04:30:15.547Z,18.8
2018-11-25T04:31:17.986Z,18.9
2018-11-25T04:32:19.900Z,18.8
2018-11-25T04:33:21.779Z,18.8
2018-11-25T04:34:24.208Z,18.9
2018-11-25T04:35:26.366Z,18.9
2018-11-25T04:36:28.810Z,18.9
2018-11-25T04:37:30.414Z,18.9
2018-11-25T04:38:32.858Z,18.8
2018-11-25T04:39:34.753Z,18.9
2018-11-25T04:40:36.918Z,18.8
2018-11-25T04:41:39.078Z,18.8
2018-11-25T04:42:40.954Z,18.8
2018-11-25T04:43:43.103Z,18.7
2018-11-25T04:44:45.259Z,18.8
2018-11-25T04:45:47.409Z,18.8
2018-11-25T04:46:49.829Z,18.7
2018-11-25T04:47:51.969Z,18.8
2018-11-25T04:48:54.392Z,18.7
2018-11-25T04:49:56.817Z,18.7
2018-11-25T04:50:58.989Z,18.7
2018-11-25T04:52:00.869Z,18.7
2018-11-25T04:53:03.300Z,18.8
2018-11-25T04:54:05.456Z,18.9
2018-11-25T04:55:07.596Z,18.8
2018-11-25T04:56:09.718Z,18.8
2018-11-25T04:57:11.585Z,18.7
2018-11-25T04:58:13.468Z,18.7
2018-11-25T04:59:15.896Z,18.7
2018-11-25T05:00:18.332Z,18.7
2018-11-25T05:01:20.470Z,18.7
2018-11-25T05:02:22.629Z,18.7
2018-11-25T05:03:24.802Z,18.7
2018-11-25T05:04:26.951Z,18.9
2018-11-25T05:05:29.102Z,18.9
2018-11-25T05:06:30.687Z,18.8
2018-11-25T05:07:32.850Z,18.7
2018-11-25T05:08:35.280Z,18.8
2018-11-25T05:09:37.447Z,18.8
2018-11-25T05:10:39.598Z,18.7
2018-11-25T05:11:42.029Z,18.7
2018-11-25T05:12:44.187Z,18.8
2018-11-25T05:13:46.056Z,18.7
2018-11-25T05:14:48.213Z,18.7
2018-11-25T05:15:50.377Z,18.7
2018-11-25T05:16:52.250Z,18.7
2018-11-25T05:17:53.864Z,18.7
2018-11-25T05:18:55.746Z,18.7
2018-11-25T05:19:57.330Z,18.6
2018-11-25T05:20:59.476Z,18.7
2018-11-25T05:22:01.356Z,18.7
2018-11-25T05:23:03.508Z,18.7
2018-11-25T05:24:05.676Z,18.7
2018-11-25T05:25:07.835Z,18.6
2018-11-25T05:26:09.977Z,18.6
2018-11-25T05:27:12.413Z,18.7
2018-11-25T05:28:14.005Z,18.6
2018-11-25T05:29:16.445Z,18.6
2018-11-25T05:30:18.582Z,18.7
2018-11-25T05:31:20.454Z,18.7
2018-11-25T05:32:22.870Z,18.7
2018-11-25T05:33:25.319Z,18.7
2018-11-25T05:34:27.750Z,18.7
2018-11-25T05:35:30.165Z,18.7
2018-11-25T05:36:31.759Z,18.6
2018-11-25T05:37:33.646Z,18.7
2018-11-25T05:38:35.792Z,18.7
2018-11-25T05:39:37.953Z,18.7
2018-11-25T05:40:40.098Z,18.7
2018-11-25T05:41:41.971Z,18.7
2018-11-25T05:42:43.626Z,18.7
2018-11-25T05:43:45.475Z,18.6
2018-11-25T05:44:47.650Z,18.6
2018-11-25T05:45:49.251Z,18.6
2018-11-25T05:46:51.410Z,18.6
2018-11-25T05:47:53.836Z,18.6
2018-11-25T05:48:56.279Z,18.6
2018-11-25T05:49:58.425Z,18.7
2018-11-25T05:51:00.573Z,18.5
2018-11-25T05:52:02.989Z,18.5
2018-11-25T05:53:05.415Z,18.6
2018-11-25T05:54:07.279Z,18.7
2018-11-25T05:55:09.150Z,18.6
2018-11-25T05:56:11.309Z,18.6
2018-11-25T05:57:13.471Z,18.6
2018-11-25T05:58:15.355Z,18.6
2018-11-25T05:59:17.234Z,18.6
2018-11-25T06:00:19.391Z,18.6
2018-11-25T06:01:21.817Z,18.5
2018-11-25T06:02:23.965Z,18.6
2018-11-25T06:03:25.852Z,18.5
2018-11-25T06:04:28.019Z,18.5
2018-11-25T06:05:30.457Z,18.6
2018-11-25T06:06:32.889Z,18.5
2018-11-25T06:07:35.051Z,18.5
2018-11-25T06:08:36.956Z,18.7
2018-11-25T06:09:38.821Z,18.6
2018-11-25T06:10:42.446Z,18.6
2018-11-25T06:11:44.962Z,18.6
2018-11-25T06:12:46.833Z,18.6
2018-11-25T06:13:48.985Z,18.6
2018-11-25T06:14:51.408Z,18.6
2018-11-25T06:15:53.828Z,18.5
2018-11-25T06:16:55.418Z,18.5
2018-11-25T06:17:57.575Z,18.7
2018-11-25T06:18:59.989Z,18.6
2018-11-25T06:20:02.128Z,18.5
2018-11-25T06:21:04.548Z,18.5
2018-11-25T06:22:06.412Z,18.4
2018-11-25T06:23:08.567Z,18.5
2018-11-25T06:24:10.718Z,18.5
2018-11-25T06:25:12.616Z,18.6
2018-11-25T06:26:15.038Z,18.6
2018-11-25T06:27:17.478Z,18.5
2018-11-25T06:28:19.628Z,18.6
2018-11-25T06:29:21.513Z,18.6
2018-11-25T06:30:23.397Z,18.5
2018-11-25T06:31:25.553Z,18.5
2018-11-25T06:32:28.837Z,18.5
2018-11-25T06:33:30.697Z,18.6
2018-11-25T06:34:32.571Z,18.5
2018-11-25T06:35:34.460Z,18.5
2018-11-25T06:36:36.885Z,18.6
2018-11-25T06:37:39.301Z,18.5
2018-11-25T06:38:41.480Z,18.5
2018-11-25T06:39:43.637Z,18.6
2018-11-25T06:40:45.807Z,18.5
2018-11-25T06:41:48.228Z,18.5
2018-11-25T06:42:50.388Z,18.6
2018-11-25T06:43:53.939Z,18.6
2018-11-25T06:44:56.407Z,18.5
2018-11-25T06:45:58.579Z,18.6
2018-11-25T06:47:00.488Z,18.6
2018-11-25T06:48:02.648Z,18.5
2018-11-25T06:49:05.074Z,18.6
2018-11-25T06:50:07.495Z,18.6
2018-11-25T06:51:09.643Z,18.6
2018-11-25T06:52:11.220Z,18.6
2018-11-25T06:53:13.405Z,18.6
2018-11-25T06:54:15.577Z,18.6
2018-11-25T06:55:18.009Z,18.5
2018-11-25T06:57:25.139Z,18.4
2018-11-25T06:58:27.300Z,18.5
2018-11-25T06:59:29.451Z,18.6
2018-11-25T07:00:31.348Z,18.6
2018-11-25T07:01:33.527Z,18.5
2018-11-25T07:02:35.134Z,18.4
2018-11-25T07:03:36.737Z,18.5
2018-11-25T07:04:38.882Z,18.4
2018-11-25T07:05:41.306Z,18.4
2018-11-25T07:06:43.198Z,18.4
2018-11-25T07:07:45.637Z,18.5
2018-11-25T07:08:48.067Z,18.5
2018-11-25T07:09:50.223Z,18.5
2018-11-25T07:10:52.374Z,18.5
2018-11-25T07:11:53.703Z,18.5
2018-11-25T07:12:55.839Z,18.5
2018-11-25T07:13:57.428Z,18.5
2018-11-25T07:14:59.863Z,18.5
2018-11-25T07:16:02.029Z,18.5
2018-11-25T07:17:04.451Z,18.5
2018-11-25T07:18:06.881Z,18.6
2018-11-25T07:19:09.314Z,18.6
2018-11-25T07:20:11.737Z,18.6
2018-11-25T07:21:13.901Z,18.4
2018-11-25T07:22:15.802Z,18.5
2018-11-25T07:23:17.389Z,18.5
2018-11-25T07:24:19.019Z,18.5
2018-11-25T07:25:21.179Z,18.5
2018-11-25T07:26:22.792Z,18.4
2018-11-25T07:27:24.947Z,18.5
2018-11-25T07:28:27.392Z,18.4
2018-11-25T07:29:29.260Z,18.4
2018-11-25T07:30:31.161Z,18.4
2018-11-25T07:31:32.738Z,18.4
2018-11-25T07:32:34.909Z,18.4
2018-11-25T07:33:36.794Z,18.4
2018-11-25T07:34:38.679Z,18.4
2018-11-25T07:35:40.565Z,18.4
2018-11-25T07:36:42.146Z,18.4
2018-11-25T07:37:44.049Z,18.4
2018-11-25T07:38:46.486Z,18.5
2018-11-25T07:39:48.919Z,18.4
2018-11-25T07:40:51.360Z,18.5
2018-11-25T07:41:53.781Z,18.5
2018-11-25T07:42:55.679Z,18.4
2018-11-25T07:43:57.825Z,18.4
2018-11-25T07:44:59.977Z,18.5
2018-11-25T07:46:03.066Z,18.5
2018-11-25T07:47:05.503Z,18.4
2018-11-25T07:48:07.110Z,18.4
2018-11-25T07:49:09.580Z,18.5
2018-11-25T07:50:11.465Z,18.4
2018-11-25T07:51:13.667Z,18.5
2018-11-25T07:52:16.095Z,18.4
2018-11-25T07:53:17.997Z,18.5
2018-11-25T07:54:20.451Z,18.4
2018-11-25T07:55:22.604Z,18.5
2018-11-25T07:56:25.021Z,18.4
2018-11-25T07:57:27.157Z,18.4
2018-11-25T07:58:29.309Z,18.5
2018-11-25T07:59:30.918Z,18.5
2018-11-25T08:00:32.803Z,18.4
2018-11-25T08:01:35.223Z,18.4
2018-11-25T08:03:42.337Z,18.4
2018-11-25T08:04:44.208Z,18.4
2018-11-25T08:05:46.093Z,18.5
2018-11-25T08:06:47.690Z,18.5
2018-11-25T08:07:50.121Z,18.5
2018-11-25T08:08:52.538Z,18.5
2018-11-25T08:09:54.689Z,18.6
2018-11-25T08:10:57.114Z,18.4
2018-11-25T08:11:59.552Z,18.5
2018-11-25T08:13:01.980Z,18.6
2018-11-25T08:14:03.851Z,18.5
2018-11-25T08:15:05.437Z,18.5
2018-11-25T08:16:07.588Z,18.4
2018-11-25T08:17:10.024Z,18.5
2018-11-25T08:18:12.459Z,18.6
2018-11-25T08:19:14.893Z,18.6
2018-11-25T08:20:17.315Z,18.6
2018-11-25T08:21:19.460Z,18.5
2018-11-25T08:22:21.327Z,18.5
2018-11-25T08:23:23.754Z,18.5
2018-11-25T08:24:25.672Z,18.5
2018-11-25T08:25:27.839Z,18.5
2018-11-25T08:26:29.979Z,18.5
2018-11-25T08:27:31.583Z,18.4
2018-11-25T08:28:34.018Z,18.5
2018-11-25T08:29:36.189Z,18.4
2018-11-25T08:30:38.356Z,18.4
2018-11-25T08:31:39.954Z,18.5
2018-11-25T08:32:42.402Z,18.5
2018-11-25T08:33:44.601Z,18.4
2018-11-25T08:34:46.777Z,18.5
2018-11-25T08:35:49.202Z,18.5
2018-11-25T08:36:51.656Z,18.5
2018-11-25T08:37:53.508Z,18.5
2018-11-25T08:38:55.668Z,18.5
2018-11-25T08:39:58.102Z,18.5
2018-11-25T08:41:00.540Z,18.5
2018-11-25T08:42:02.706Z,18.5
2018-11-25T08:43:04.851Z,18.5
2018-11-25T08:44:07.293Z,18.5
2018-11-25T08:45:09.732Z,18.4
2018-11-25T08:46:11.901Z,18.5
2018-11-25T08:47:14.333Z,18.4
2018-11-25T08:48:16.756Z,18.5
2018-11-25T08:49:18.638Z,18.6
2018-11-25T08:50:20.794Z,18.5
2018-11-25T08:51:22.929Z,18.5
2018-11-25T08:52:25.434Z,18.5
2018-11-25T08:53:27.309Z,18.4
2018-11-25T08:54:29.213Z,18.6
2018-11-25T08:55:31.395Z,18.5
2018-11-25T08:56:33.829Z,18.6
2018-11-25T08:57:35.984Z,18.5
2018-11-25T08:58:38.154Z,18.4
2018-11-25T08:59:40.587Z,18.5
2018-11-25T09:00:42.721Z,18.5
2018-11-25T09:01:44.866Z,18.7
2018-11-25T09:02:47.288Z,18.5
2018-11-25T09:03:49.721Z,18.4
2018-11-25T09:04:51.307Z,18.5
2018-11-25T09:05:53.468Z,18.5
2018-11-25T09:06:55.907Z,18.5
2018-11-25T09:07:57.818Z,18.5
2018-11-25T09:08:59.966Z,18.5
2018-11-25T09:10:01.844Z,18.5
2018-11-25T09:11:03.706Z,18.5
2018-11-25T09:12:05.305Z,18.5
2018-11-25T09:13:06.910Z,18.5
2018-11-25T09:14:09.060Z,18.5
2018-11-25T09:15:11.258Z,18.4
2018-11-25T09:16:13.687Z,18.4
2018-11-25T09:17:16.118Z,18.5
2018-11-25T09:18:18.551Z,18.5
2018-11-25T09:19:20.418Z,18.4
2018-11-25T09:20:22.557Z,18.5
2018-11-25T09:21:24.686Z,18.5
2018-11-25T09:22:26.839Z,18.5
2018-11-25T09:23:29.019Z,18.5
2018-11-25T09:24:31.458Z,18.5
2018-11-25T09:25:33.888Z,18.5
2018-11-25T09:26:36.037Z,18.5
2018-11-25T09:27:38.204Z,18.4
2018-11-25T09:28:40.380Z,18.5
2018-11-25T09:29:42.837Z,18.5
2018-11-25T09:30:44.704Z,18.5
2018-11-25T09:31:46.869Z,18.5
2018-11-25T09:32:49.304Z,18.5
2018-11-25T09:33:51.170Z,18.4
2018-11-25T09:34:53.312Z,18.5
2018-11-25T09:35:55.208Z,18.5
2018-11-25T09:36:57.367Z,18.6
2018-11-25T09:37:59.831Z,18.6
2018-11-25T09:39:02.252Z,18.5
2018-11-25T09:40:04.145Z,18.4
2018-11-25T09:41:06.102Z,18.5
2018-11-25T09:42:08.532Z,18.5
2018-11-25T09:43:10.429Z,18.5
2018-11-25T09:44:13.406Z,18.6
2018-11-25T09:45:16.105Z,18.6
2018-11-25T09:46:18.553Z,18.5
2018-11-25T09:47:20.720Z,18.5
2018-11-25T09:48:23.143Z,18.5
2018-11-25T09:49:25.291Z,18.5
2018-11-25T09:50:27.717Z,18.6
2018-11-25T09:51:29.585Z,18.4
2018-11-25T09:52:31.156Z,18.5
2018-11-25T09:53:33.025Z,18.5
2018-11-25T09:54:35.196Z,18.6
2018-11-25T09:55:37.354Z,18.5
2018-11-25T09:56:38.966Z,18.5
2018-11-25T09:57:41.411Z,18.5
2018-11-25T09:58:43.846Z,18.4
2018-11-25T09:59:46.276Z,18.4
2018-11-25T10:00:48.175Z,18.4
2018-11-25T10:01:50.324Z,18.6
2018-11-25T10:02:52.490Z,18.6
2018-11-25T10:03:54.367Z,18.5
2018-11-25T10:04:56.528Z,18.5
2018-11-25T10:05:58.697Z,18.5
2018-11-25T10:07:02.999Z,18.5
2018-11-25T10:08:05.547Z,18.5
2018-11-25T10:09:07.400Z,18.5
2018-11-25T10:10:09.569Z,18.5
2018-11-25T10:11:12.009Z,18.6
2018-11-25T10:12:14.159Z,18.6
2018-11-25T10:13:16.979Z,18.5
2018-11-25T10:14:19.636Z,18.5
2018-11-25T10:15:22.620Z,18.5
2018-11-25T10:16:23.946Z,18.5
2018-11-25T10:17:26.032Z,18.4
2018-11-25T10:18:27.631Z,18.5
2018-11-25T10:19:29.787Z,18.4
2018-11-25T10:20:31.963Z,18.5
2018-11-25T10:21:34.402Z,18.5
2018-11-25T10:22:36.934Z,18.4
2018-11-25T10:23:39.686Z,18.4
2018-11-25T10:24:41.843Z,18.5
2018-11-25T10:25:43.983Z,18.5
2018-11-25T10:26:46.158Z,18.5
2018-11-25T10:27:48.317Z,18.4
2018-11-25T10:28:50.742Z,18.5
2018-11-25T10:29:52.910Z,18.5
2018-11-25T10:30:55.073Z,18.4
2018-11-25T10:31:57.504Z,18.3
2018-11-25T10:32:59.930Z,18.4
2018-11-25T10:34:02.096Z,18.4
2018-11-25T10:35:04.253Z,18.4
2018-11-25T10:36:06.395Z,18.5
2018-11-25T10:37:08.549Z,18.5
2018-11-25T10:38:10.450Z,18.5
2018-11-25T10:39:12.580Z,18.4
2018-11-25T10:40:16.041Z,18.4
2018-11-25T10:41:17.905Z,18.4
2018-11-25T10:42:19.806Z,18.4
2018-11-25T10:43:22.236Z,18.5
2018-11-25T10:44:24.658Z,18.5
2018-11-25T10:45:26.535Z,18.4
2018-11-25T10:46:28.960Z,18.5
2018-11-25T10:47:31.118Z,18.4
2018-11-25T10:48:32.989Z,18.5
2018-11-25T10:49:35.430Z,18.6
2018-11-25T10:50:36.755Z,18.4
2018-11-25T10:51:38.919Z,18.6
2018-11-25T10:52:41.090Z,18.6
2018-11-25T10:53:43.252Z,18.5
2018-11-25T10:54:45.669Z,18.5
2018-11-25T10:55:48.130Z,18.5
2018-11-25T10:56:50.090Z,18.5
2018-11-25T10:57:52.537Z,18.5
2018-11-25T10:58:54.979Z,18.5
2018-11-25T10:59:57.140Z,18.6
2018-11-25T11:00:59.583Z,18.5
2018-11-25T11:02:01.789Z,18.5
2018-11-25T11:03:04.228Z,18.6
2018-11-25T11:04:06.666Z,18.6
2018-11-25T11:05:09.148Z,18.4
2018-11-25T11:06:11.571Z,18.5
2018-11-25T11:07:13.988Z,18.5
2018-11-25T11:08:16.152Z,18.5
2018-11-25T11:09:18.029Z,18.5
2018-11-25T11:10:20.196Z,18.5
2018-11-25T11:11:22.661Z,18.4
2018-11-25T11:12:24.818Z,18.6
2018-11-25T11:13:26.964Z,18.4
2018-11-25T11:14:29.390Z,18.5
2018-11-25T11:15:31.816Z,18.4
2018-11-25T11:16:34.234Z,18.5
2018-11-25T11:17:35.858Z,18.5
2018-11-25T11:18:39.086Z,18.5
2018-11-25T11:19:40.942Z,18.5
2018-11-25T11:20:43.369Z,18.5
2018-11-25T11:21:45.539Z,18.5
2018-11-25T11:22:47.731Z,18.4
2018-11-25T11:23:49.864Z,18.4
2018-11-25T11:24:52.017Z,18.5
2018-11-25T11:25:54.456Z,18.5
2018-11-25T11:26:56.892Z,18.5
2018-11-25T11:27:59.065Z,18.6
2018-11-25T11:29:01.228Z,18.4
2018-11-25T11:30:03.408Z,18.5
2018-11-25T11:31:05.279Z,18.4
2018-11-25T11:32:11.157Z,18.5
2018-11-25T11:33:13.592Z,18.5
2018-11-25T11:34:16.029Z,18.5
2018-11-25T11:35:17.893Z,18.5
2018-11-25T11:36:20.356Z,18.5
2018-11-25T11:37:22.860Z,18.5
2018-11-25T11:38:24.757Z,18.5
2018-11-25T11:39:26.898Z,18.5
2018-11-25T11:40:29.329Z,18.5
2018-11-25T11:41:31.497Z,18.4
2018-11-25T11:42:33.707Z,18.5
2018-11-25T11:43:35.850Z,18.6
2018-11-25T11:44:37.739Z,18.6
2018-11-25T11:45:40.168Z,18.6
2018-11-25T11:46:42.316Z,18.5
2018-11-25T11:47:44.485Z,18.5
2018-11-25T11:48:46.377Z,18.5
2018-11-25T11:49:48.548Z,18.4
2018-11-25T11:50:50.409Z,18.5
2018-11-25T11:51:52.840Z,18.5
2018-11-25T11:52:55.288Z,18.5
2018-11-25T11:53:57.206Z,18.5
2018-11-25T11:54:59.364Z,18.5
2018-11-25T11:56:01.551Z,18.5
2018-11-25T11:57:03.426Z,18.5
2018-11-25T11:58:05.611Z,18.5
2018-11-25T11:59:06.943Z,18.4
2018-11-25T12:00:09.132Z,18.4
2018-11-25T12:01:13.127Z,18.5
2018-11-25T12:02:15.444Z,18.4
2018-11-25T12:03:26.096Z,18.5
2018-11-25T12:04:23.092Z,18.4
2018-11-25T12:05:25.259Z,18.6
2018-11-25T12:06:27.186Z,18.4
2018-11-25T12:07:29.362Z,18.5
2018-11-25T12:08:31.808Z,18.4
2018-11-25T12:09:33.944Z,18.5
2018-11-25T12:10:36.375Z,18.6
2018-11-25T12:11:38.541Z,18.5
2018-11-25T12:12:40.971Z,18.5
2018-11-25T12:13:43.404Z,18.4
2018-11-25T12:14:45.582Z,18.4
2018-11-25T12:15:52.220Z,18.5
2018-11-25T12:16:54.367Z,18.5
2018-11-25T12:17:56.240Z,18.5
2018-11-25T12:18:58.669Z,18.5
2018-11-25T12:20:01.114Z,18.6
2018-11-25T12:21:03.308Z,18.5
2018-11-25T12:22:05.756Z,18.4
2018-11-25T12:23:08.232Z,18.4
2018-11-25T12:24:09.909Z,18.4
2018-11-25T12:25:12.335Z,18.5
2018-11-25T12:26:14.765Z,18.5
2018-11-25T12:27:16.645Z,18.5
2018-11-25T12:28:18.784Z,18.6
2018-11-25T12:29:21.214Z,18.5
2018-11-25T12:30:23.369Z,18.6
2018-11-25T12:31:24.994Z,18.5
2018-11-25T12:32:27.421Z,18.5
2018-11-25T12:33:29.308Z,18.5
2018-11-25T12:34:31.735Z,18.4
2018-11-25T12:35:33.632Z,18.5
2018-11-25T12:36:35.781Z,18.5
2018-11-25T12:37:37.925Z,18.4
2018-11-25T12:38:40.076Z,18.4
2018-11-25T12:39:42.025Z,18.6
2018-11-25T12:40:44.469Z,18.6
2018-11-25T12:41:46.826Z,18.5
2018-11-25T12:42:48.969Z,18.5
2018-11-25T12:43:51.123Z,18.5
2018-11-25T12:44:53.313Z,18.6
2018-11-25T12:45:55.489Z,18.5
2018-11-25T12:46:58.071Z,18.5
2018-11-25T12:48:00.005Z,18.5
2018-11-25T12:49:02.156Z,18.5
2018-11-25T12:50:04.065Z,18.5
2018-11-25T12:51:06.501Z,18.6
2018-11-25T12:52:08.939Z,18.6
2018-11-25T12:53:11.384Z,18.4
2018-11-25T12:54:13.553Z,18.5
2018-11-25T12:55:15.430Z,18.5
2018-11-25T12:56:17.607Z,18.4
2018-11-25T12:57:20.041Z,18.5
2018-11-25T12:58:22.470Z,18.4
2018-11-25T12:59:24.906Z,18.5
2018-11-25T13:00:27.048Z,18.5
2018-11-25T13:01:29.220Z,18.5
2018-11-25T13:02:31.360Z,18.5
2018-11-25T13:03:34.073Z,18.5
2018-11-25T13:04:36.372Z,18.5
2018-11-25T13:06:44.079Z,18.6
2018-11-25T13:07:46.361Z,18.5
2018-11-25T13:08:48.625Z,18.2
2018-11-25T13:09:50.474Z,18.4
2018-11-25T13:10:53.206Z,18.4
2018-11-25T13:11:55.198Z,18.3
2018-11-25T13:12:57.123Z,18.4
2018-11-25T13:13:59.472Z,18.4
2018-11-25T13:15:01.761Z,18.4
2018-11-25T13:16:03.847Z,18.4
2018-11-25T13:17:06.114Z,18.4
2018-11-25T13:18:08.486Z,18.4
2018-11-25T13:19:10.671Z,18.3
2018-11-25T13:20:13.036Z,18.4
2018-11-25T13:21:15.026Z,18.4
2018-11-25T13:22:16.887Z,18.4
2018-11-25T13:23:19.209Z,18.4
2018-11-25T13:24:21.913Z,18.3
2018-11-25T13:25:24.108Z,18.4
2018-11-25T13:26:26.642Z,18.5
2018-11-25T13:27:28.997Z,18.5
2018-11-25T13:28:31.769Z,18.4
2018-11-25T13:29:34.052Z,18.5
2018-11-25T13:30:36.178Z,18.4
2018-11-25T13:31:38.293Z,18.6
2018-11-25T13:32:40.999Z,18.5
2018-11-25T13:33:43.164Z,18.5
2018-11-25T13:34:45.498Z,18.4
2018-11-25T13:35:48.173Z,18.5
2018-11-25T13:36:50.868Z,18.4
2018-11-25T13:37:53.574Z,18.5
2018-11-25T13:38:56.171Z,18.4
2018-11-25T13:39:58.649Z,18.4
2018-11-25T13:41:00.579Z,18.4
2018-11-25T13:42:03.153Z,18.5
2018-11-25T13:43:05.969Z,18.5
2018-11-25T13:44:08.252Z,18.5
2018-11-25T13:45:10.374Z,18.3
2018-11-25T13:46:12.832Z,18.4
2018-11-25T13:47:15.325Z,18.4
2018-11-25T13:48:17.562Z,18.4
2018-11-25T13:49:20.201Z,18.4
2018-11-25T13:50:21.969Z,18.4
2018-11-25T13:51:24.152Z,18.4
2018-11-25T13:52:26.445Z,18.4
2018-11-25T13:53:28.886Z,18.3
2018-11-25T13:54:31.716Z,18.4
2018-11-25T13:55:34.032Z,18.6